sensor_id;sensor_type;location;lat;lon;timestamp;temperature;humidity
62589;DHT22;58504;48.770;9.148;2023-05-14T00:00:39;21.70;54.80
62589;DHT22;58504;48.770;9.148;2023-05-14T00:03:06;21.70;54.90
62589;DHT22;58504;48.770;9.148;2023-05-14T00:05:34;21.70;54.90
62589;DHT22;58504;48.770;9.148;2023-05-14T00:08:01;21.70;54.90
62589;DHT22;58504;48.770;9.148;2023-05-14T00:10:28;21.70;55.00
62589;DHT22;58504;48.770;9.148;2023-05-14T00:12:54;21.70;55.00
62589;DHT22;58504;48.770;9.148;2023-05-14T00:15:21;21.60;55.00
62589;DHT22;58504;48.770;9.148;2023-05-14T00:17:48;21.70;55.10
62589;DHT22;58504;48.770;9.148;2023-05-14T00:20:15;21.60;55.00
62589;DHT22;58504;48.770;9.148;2023-05-14T00:22:43;21.60;55.00
62589;DHT22;58504;48.770;9.148;2023-05-14T00:25:10;21.60;55.10
62589;DHT22;58504;48.770;9.148;2023-05-14T00:27:36;21.60;55.10
62589;DHT22;58504;48.770;9.148;2023-05-14T00:30:04;21.60;55.10
62589;DHT22;58504;48.770;9.148;2023-05-14T00:32:31;21.50;55.10
62589;DHT22;58504;48.770;9.148;2023-05-14T00:34:58;21.50;55.10
62589;DHT22;58504;48.770;9.148;2023-05-14T00:37:27;21.50;55.10
62589;DHT22;58504;48.770;9.148;2023-05-14T00:39:55;21.50;55.20
62589;DHT22;58504;48.770;9.148;2023-05-14T00:42:22;21.50;55.20
62589;DHT22;58504;48.770;9.148;2023-05-14T00:44:49;21.50;55.20
62589;DHT22;58504;48.770;9.148;2023-05-14T00:47:15;21.50;55.20
62589;DHT22;58504;48.770;9.148;2023-05-14T00:49:42;21.50;55.30
62589;DHT22;58504;48.770;9.148;2023-05-14T00:52:10;21.50;55.30
62589;DHT22;58504;48.770;9.148;2023-05-14T00:54:37;21.40;55.20
62589;DHT22;58504;48.770;9.148;2023-05-14T00:57:05;21.40;55.30
62589;DHT22;58504;48.770;9.148;2023-05-14T00:59:32;21.40;55.30
62589;DHT22;58504;48.770;9.148;2023-05-14T01:02:00;21.40;55.30
62589;DHT22;58504;48.770;9.148;2023-05-14T01:04:27;21.40;55.40
62589;DHT22;58504;48.770;9.148;2023-05-14T01:07:02;21.40;55.40
62589;DHT22;58504;48.770;9.148;2023-05-14T01:09:37;21.30;55.40
62589;DHT22;58504;48.770;9.148;2023-05-14T01:12:16;21.30;55.40
62589;DHT22;58504;48.770;9.148;2023-05-14T01:14:53;21.30;55.40
62589;DHT22;58504;48.770;9.148;2023-05-14T01:17:21;21.30;55.50
62589;DHT22;58504;48.770;9.148;2023-05-14T01:19:50;21.30;55.50
62589;DHT22;58504;48.770;9.148;2023-05-14T01:22:18;21.20;55.50
62589;DHT22;58504;48.770;9.148;2023-05-14T01:24:45;21.20;55.60
62589;DHT22;58504;48.770;9.148;2023-05-14T01:27:17;21.20;55.70
62589;DHT22;58504;48.770;9.148;2023-05-14T01:29:51;21.20;55.70
62589;DHT22;58504;48.770;9.148;2023-05-14T01:32:18;21.20;55.70
62589;DHT22;58504;48.770;9.148;2023-05-14T01:34:48;21.20;55.70
62589;DHT22;58504;48.770;9.148;2023-05-14T01:37:16;21.10;55.70
62589;DHT22;58504;48.770;9.148;2023-05-14T01:39:45;21.10;55.70
62589;DHT22;58504;48.770;9.148;2023-05-14T01:42:12;21.10;55.80
62589;DHT22;58504;48.770;9.148;2023-05-14T01:44:39;21.10;55.80
62589;DHT22;58504;48.770;9.148;2023-05-14T01:47:06;21.10;55.80
62589;DHT22;58504;48.770;9.148;2023-05-14T01:49:33;21.10;55.90
62589;DHT22;58504;48.770;9.148;2023-05-14T01:52:01;21.10;55.80
62589;DHT22;58504;48.770;9.148;2023-05-14T01:54:28;21.10;55.90
62589;DHT22;58504;48.770;9.148;2023-05-14T01:56:56;21.10;55.90
62589;DHT22;58504;48.770;9.148;2023-05-14T01:59:23;21.10;55.90
62589;DHT22;58504;48.770;9.148;2023-05-14T02:01:49;21.10;56.00
62589;DHT22;58504;48.770;9.148;2023-05-14T02:04:16;21.10;55.90
62589;DHT22;58504;48.770;9.148;2023-05-14T02:06:43;21.10;56.00
62589;DHT22;58504;48.770;9.148;2023-05-14T02:09:10;21.10;56.00
62589;DHT22;58504;48.770;9.148;2023-05-14T02:11:37;21.00;55.90
62589;DHT22;58504;48.770;9.148;2023-05-14T02:14:05;21.00;55.90
62589;DHT22;58504;48.770;9.148;2023-05-14T02:16:31;21.00;55.90
62589;DHT22;58504;48.770;9.148;2023-05-14T02:18:58;21.00;55.90
62589;DHT22;58504;48.770;9.148;2023-05-14T02:21:25;21.00;56.00
62589;DHT22;58504;48.770;9.148;2023-05-14T02:23:52;21.00;56.00
62589;DHT22;58504;48.770;9.148;2023-05-14T02:26:18;21.00;56.00
62589;DHT22;58504;48.770;9.148;2023-05-14T02:28:45;21.00;56.00
62589;DHT22;58504;48.770;9.148;2023-05-14T02:31:13;21.00;56.00
62589;DHT22;58504;48.770;9.148;2023-05-14T02:33:42;21.00;56.00
62589;DHT22;58504;48.770;9.148;2023-05-14T02:36:08;21.00;56.00
62589;DHT22;58504;48.770;9.148;2023-05-14T02:38:35;21.00;56.10
62589;DHT22;58504;48.770;9.148;2023-05-14T02:41:02;21.00;56.00
62589;DHT22;58504;48.770;9.148;2023-05-14T02:43:28;20.90;56.00
62589;DHT22;58504;48.770;9.148;2023-05-14T02:45:55;20.90;56.00
62589;DHT22;58504;48.770;9.148;2023-05-14T02:48:23;20.90;56.00
62589;DHT22;58504;48.770;9.148;2023-05-14T02:50:50;20.90;56.00
62589;DHT22;58504;48.770;9.148;2023-05-14T02:53:17;20.90;56.00
62589;DHT22;58504;48.770;9.148;2023-05-14T02:55:44;20.90;56.00
62589;DHT22;58504;48.770;9.148;2023-05-14T02:58:10;20.90;56.00
62589;DHT22;58504;48.770;9.148;2023-05-14T03:00:37;20.90;56.00
62589;DHT22;58504;48.770;9.148;2023-05-14T03:03:04;20.90;56.00
62589;DHT22;58504;48.770;9.148;2023-05-14T03:05:32;20.90;56.10
62589;DHT22;58504;48.770;9.148;2023-05-14T03:07:59;20.90;56.10
62589;DHT22;58504;48.770;9.148;2023-05-14T03:10:26;20.90;56.10
62589;DHT22;58504;48.770;9.148;2023-05-14T03:12:53;20.90;56.10
62589;DHT22;58504;48.770;9.148;2023-05-14T03:15:19;20.90;56.10
62589;DHT22;58504;48.770;9.148;2023-05-14T03:17:46;20.90;56.10
62589;DHT22;58504;48.770;9.148;2023-05-14T03:20:13;20.90;56.10
62589;DHT22;58504;48.770;9.148;2023-05-14T03:22:41;20.90;56.80
62589;DHT22;58504;48.770;9.148;2023-05-14T03:25:08;20.90;56.20
62589;DHT22;58504;48.770;9.148;2023-05-14T03:27:35;20.90;56.20
62589;DHT22;58504;48.770;9.148;2023-05-14T03:30:02;20.90;56.20
62589;DHT22;58504;48.770;9.148;2023-05-14T03:32:29;20.90;56.20
62589;DHT22;58504;48.770;9.148;2023-05-14T03:34:56;20.80;56.20
62589;DHT22;58504;48.770;9.148;2023-05-14T03:37:23;20.80;56.20
62589;DHT22;58504;48.770;9.148;2023-05-14T03:39:51;20.80;56.20
62589;DHT22;58504;48.770;9.148;2023-05-14T03:42:18;20.80;56.20
62589;DHT22;58504;48.770;9.148;2023-05-14T03:44:45;20.80;56.20
62589;DHT22;58504;48.770;9.148;2023-05-14T03:47:12;20.80;56.20
62589;DHT22;58504;48.770;9.148;2023-05-14T03:49:38;20.80;56.20
62589;DHT22;58504;48.770;9.148;2023-05-14T03:52:05;20.80;56.20
62589;DHT22;58504;48.770;9.148;2023-05-14T03:54:32;20.80;56.20
62589;DHT22;58504;48.770;9.148;2023-05-14T03:57:00;20.80;56.20
62589;DHT22;58504;48.770;9.148;2023-05-14T03:59:27;20.80;56.20
62589;DHT22;58504;48.770;9.148;2023-05-14T04:01:54;20.80;56.20
62589;DHT22;58504;48.770;9.148;2023-05-14T04:04:21;20.80;56.20
62589;DHT22;58504;48.770;9.148;2023-05-14T04:06:47;20.80;56.20
62589;DHT22;58504;48.770;9.148;2023-05-14T04:09:14;20.80;56.30
62589;DHT22;58504;48.770;9.148;2023-05-14T04:11:41;20.80;56.20
62589;DHT22;58504;48.770;9.148;2023-05-14T04:14:09;20.80;56.30
62589;DHT22;58504;48.770;9.148;2023-05-14T04:16:36;20.80;56.20
62589;DHT22;58504;48.770;9.148;2023-05-14T04:19:03;20.80;56.30
62589;DHT22;58504;48.770;9.148;2023-05-14T04:21:30;20.80;56.30
62589;DHT22;58504;48.770;9.148;2023-05-14T04:23:57;20.80;56.30
62589;DHT22;58504;48.770;9.148;2023-05-14T04:26:23;20.70;56.20
62589;DHT22;58504;48.770;9.148;2023-05-14T04:28:50;20.80;56.30
62589;DHT22;58504;48.770;9.148;2023-05-14T04:31:18;20.70;56.20
62589;DHT22;58504;48.770;9.148;2023-05-14T04:33:45;20.70;56.20
62589;DHT22;58504;48.770;9.148;2023-05-14T04:36:12;20.70;56.20
62589;DHT22;58504;48.770;9.148;2023-05-14T04:38:40;20.70;56.20
62589;DHT22;58504;48.770;9.148;2023-05-14T04:41:07;20.80;56.40
62589;DHT22;58504;48.770;9.148;2023-05-14T04:43:33;20.90;56.20
62589;DHT22;58504;48.770;9.148;2023-05-14T04:46:00;21.00;56.10
62589;DHT22;58504;48.770;9.148;2023-05-14T04:48:28;21.10;55.80
62589;DHT22;58504;48.770;9.148;2023-05-14T04:50:55;21.20;55.60
62589;DHT22;58504;48.770;9.148;2023-05-14T04:53:22;21.30;55.30
62589;DHT22;58504;48.770;9.148;2023-05-14T04:55:49;21.40;55.10
62589;DHT22;58504;48.770;9.148;2023-05-14T04:58:16;21.60;55.00
62589;DHT22;58504;48.770;9.148;2023-05-14T05:00:43;21.70;54.90
62589;DHT22;58504;48.770;9.148;2023-05-14T05:03:10;21.80;54.60
62589;DHT22;58504;48.770;9.148;2023-05-14T05:05:38;21.90;54.50
62589;DHT22;58504;48.770;9.148;2023-05-14T05:08:05;21.90;54.30
62589;DHT22;58504;48.770;9.148;2023-05-14T05:10:32;22.00;54.10
62589;DHT22;58504;48.770;9.148;2023-05-14T05:12:59;22.10;54.00
62589;DHT22;58504;48.770;9.148;2023-05-14T05:15:26;22.20;54.00
62589;DHT22;58504;48.770;9.148;2023-05-14T05:17:52;22.20;53.70
62589;DHT22;58504;48.770;9.148;2023-05-14T05:20:19;22.30;53.70
62589;DHT22;58504;48.770;9.148;2023-05-14T05:22:47;22.30;53.50
62589;DHT22;58504;48.770;9.148;2023-05-14T05:25:14;22.40;53.50
62589;DHT22;58504;48.770;9.148;2023-05-14T05:27:41;22.40;53.30
62589;DHT22;58504;48.770;9.148;2023-05-14T05:30:08;22.50;53.30
62589;DHT22;58504;48.770;9.148;2023-05-14T05:32:35;22.50;53.20
62589;DHT22;58504;48.770;9.148;2023-05-14T05:35:02;22.60;53.10
62589;DHT22;58504;48.770;9.148;2023-05-14T05:37:30;22.60;53.00
62589;DHT22;58504;48.770;9.148;2023-05-14T05:39:58;22.60;52.90
62589;DHT22;58504;48.770;9.148;2023-05-14T05:42:25;22.70;52.90
62589;DHT22;58504;48.770;9.148;2023-05-14T05:44:52;22.70;52.80
62589;DHT22;58504;48.770;9.148;2023-05-14T05:47:19;22.70;52.70
62589;DHT22;58504;48.770;9.148;2023-05-14T05:49:45;22.70;52.70
62589;DHT22;58504;48.770;9.148;2023-05-14T05:52:12;22.70;52.60
62589;DHT22;58504;48.770;9.148;2023-05-14T05:54:39;22.80;52.60
62589;DHT22;58504;48.770;9.148;2023-05-14T05:57:07;22.80;52.80
62589;DHT22;58504;48.770;9.148;2023-05-14T05:59:33;22.80;52.50
62589;DHT22;58504;48.770;9.148;2023-05-14T06:02:00;22.90;52.50
62589;DHT22;58504;48.770;9.148;2023-05-14T06:04:27;22.90;52.50
62589;DHT22;58504;48.770;9.148;2023-05-14T06:06:54;22.90;52.40
62589;DHT22;58504;48.770;9.148;2023-05-14T06:09:20;22.90;52.40
62589;DHT22;58504;48.770;9.148;2023-05-14T06:11:47;22.90;52.80
62589;DHT22;58504;48.770;9.148;2023-05-14T06:14:15;22.90;53.20
62589;DHT22;58504;48.770;9.148;2023-05-14T06:16:42;22.90;53.20
62589;DHT22;58504;48.770;9.148;2023-05-14T06:19:09;22.90;53.10
62589;DHT22;58504;48.770;9.148;2023-05-14T06:21:35;22.90;53.10
62589;DHT22;58504;48.770;9.148;2023-05-14T06:24:02;22.90;53.00
62589;DHT22;58504;48.770;9.148;2023-05-14T06:26:29;22.90;53.00
62589;DHT22;58504;48.770;9.148;2023-05-14T06:28:56;22.80;52.90
62589;DHT22;58504;48.770;9.148;2023-05-14T06:31:24;22.90;53.00
62589;DHT22;58504;48.770;9.148;2023-05-14T06:33:51;22.80;52.90
62589;DHT22;58504;48.770;9.148;2023-05-14T06:36:18;22.80;52.90
62589;DHT22;58504;48.770;9.148;2023-05-14T06:38:45;22.80;52.90
62589;DHT22;58504;48.770;9.148;2023-05-14T06:41:11;22.80;52.90
62589;DHT22;58504;48.770;9.148;2023-05-14T06:43:38;22.80;52.90
62589;DHT22;58504;48.770;9.148;2023-05-14T06:46:05;22.80;52.90
62589;DHT22;58504;48.770;9.148;2023-05-14T06:48:33;22.80;52.90
62589;DHT22;58504;48.770;9.148;2023-05-14T06:51:00;22.80;52.90
62589;DHT22;58504;48.770;9.148;2023-05-14T06:53:28;22.80;52.90
62589;DHT22;58504;48.770;9.148;2023-05-14T06:55:55;22.70;52.90
62589;DHT22;58504;48.770;9.148;2023-05-14T06:58:22;22.70;52.90
62589;DHT22;58504;48.770;9.148;2023-05-14T07:00:49;22.70;52.90
62589;DHT22;58504;48.770;9.148;2023-05-14T07:03:15;22.70;52.90
62589;DHT22;58504;48.770;9.148;2023-05-14T07:05:43;22.70;52.90
62589;DHT22;58504;48.770;9.148;2023-05-14T07:08:11;22.70;52.90
62589;DHT22;58504;48.770;9.148;2023-05-14T07:10:38;22.70;52.90
62589;DHT22;58504;48.770;9.148;2023-05-14T07:13:05;22.70;53.00
62589;DHT22;58504;48.770;9.148;2023-05-14T07:15:31;22.70;52.90
62589;DHT22;58504;48.770;9.148;2023-05-14T07:17:58;22.70;52.90
62589;DHT22;58504;48.770;9.148;2023-05-14T07:20:25;22.70;52.90
62589;DHT22;58504;48.770;9.148;2023-05-14T07:22:53;22.70;52.90
62589;DHT22;58504;48.770;9.148;2023-05-14T07:25:20;22.70;52.90
62589;DHT22;58504;48.770;9.148;2023-05-14T07:27:46;22.70;52.90
62589;DHT22;58504;48.770;9.148;2023-05-14T07:30:14;22.70;52.90
62589;DHT22;58504;48.770;9.148;2023-05-14T07:32:41;22.70;52.90
62589;DHT22;58504;48.770;9.148;2023-05-14T07:35:08;22.70;53.00
62589;DHT22;58504;48.770;9.148;2023-05-14T07:37:36;22.70;52.90
62589;DHT22;58504;48.770;9.148;2023-05-14T07:40:05;22.70;52.90
62589;DHT22;58504;48.770;9.148;2023-05-14T07:42:32;22.70;52.80
62589;DHT22;58504;48.770;9.148;2023-05-14T07:44:59;22.70;52.80
62589;DHT22;58504;48.770;9.148;2023-05-14T07:47:26;22.80;52.80
62589;DHT22;58504;48.770;9.148;2023-05-14T07:49:54;22.70;52.70
62589;DHT22;58504;48.770;9.148;2023-05-14T07:52:21;22.80;52.70
62589;DHT22;58504;48.770;9.148;2023-05-14T07:54:48;22.80;52.60
62589;DHT22;58504;48.770;9.148;2023-05-14T07:57:17;22.90;52.50
62589;DHT22;58504;48.770;9.148;2023-05-14T07:59:43;22.90;52.40
62589;DHT22;58504;48.770;9.148;2023-05-14T08:02:10;23.00;52.30
62589;DHT22;58504;48.770;9.148;2023-05-14T08:04:38;23.00;52.10
62589;DHT22;58504;48.770;9.148;2023-05-14T08:07:05;23.10;52.10
62589;DHT22;58504;48.770;9.148;2023-05-14T08:09:33;23.30;52.00
62589;DHT22;58504;48.770;9.148;2023-05-14T08:11:59;23.50;51.50
62589;DHT22;58504;48.770;9.148;2023-05-14T08:14:27;23.70;51.10
62589;DHT22;58504;48.770;9.148;2023-05-14T08:16:54;23.90;50.70
62589;DHT22;58504;48.770;9.148;2023-05-14T08:19:21;24.00;50.30
62589;DHT22;58504;48.770;9.148;2023-05-14T08:21:48;24.30;50.00
62589;DHT22;58504;48.770;9.148;2023-05-14T08:24:15;24.50;49.40
62589;DHT22;58504;48.770;9.148;2023-05-14T08:26:42;24.70;48.90
62589;DHT22;58504;48.770;9.148;2023-05-14T08:29:09;24.90;48.40
62589;DHT22;58504;48.770;9.148;2023-05-14T08:31:37;25.10;48.00
62589;DHT22;58504;48.770;9.148;2023-05-14T08:34:04;25.10;47.80
62589;DHT22;58504;48.770;9.148;2023-05-14T08:36:30;25.10;47.90
62589;DHT22;58504;48.770;9.148;2023-05-14T08:38:58;25.00;48.00
62589;DHT22;58504;48.770;9.148;2023-05-14T08:41:24;24.90;48.10
62589;DHT22;58504;48.770;9.148;2023-05-14T08:43:57;24.90;48.30
62589;DHT22;58504;48.770;9.148;2023-05-14T08:46:29;24.80;48.30
62589;DHT22;58504;48.770;9.148;2023-05-14T08:49:05;24.80;48.30
62589;DHT22;58504;48.770;9.148;2023-05-14T08:51:36;25.00;48.20
62589;DHT22;58504;48.770;9.148;2023-05-14T08:54:04;25.20;47.80
62589;DHT22;58504;48.770;9.148;2023-05-14T08:56:32;25.50;47.00
62589;DHT22;58504;48.770;9.148;2023-05-14T08:58:59;25.60;46.90
62589;DHT22;58504;48.770;9.148;2023-05-14T09:01:26;25.60;46.90
62589;DHT22;58504;48.770;9.148;2023-05-14T09:03:54;25.60;46.80
62589;DHT22;58504;48.770;9.148;2023-05-14T09:06:23;25.90;46.50
62589;DHT22;58504;48.770;9.148;2023-05-14T09:08:50;26.20;45.70
62589;DHT22;58504;48.770;9.148;2023-05-14T09:11:18;26.60;45.20
62589;DHT22;58504;48.770;9.148;2023-05-14T09:13:45;26.80;44.60
62589;DHT22;58504;48.770;9.148;2023-05-14T09:16:11;27.10;44.10
62589;DHT22;58504;48.770;9.148;2023-05-14T09:18:42;27.10;43.60
62589;DHT22;58504;48.770;9.148;2023-05-14T09:21:12;27.10;43.60
62589;DHT22;58504;48.770;9.148;2023-05-14T09:23:42;26.90;43.70
62589;DHT22;58504;48.770;9.148;2023-05-14T09:26:09;26.60;44.10
62589;DHT22;58504;48.770;9.148;2023-05-14T09:28:38;26.40;44.60
62589;DHT22;58504;48.770;9.148;2023-05-14T09:31:06;26.20;45.10
62589;DHT22;58504;48.770;9.148;2023-05-14T09:33:32;26.10;45.40
62589;DHT22;58504;48.770;9.148;2023-05-14T09:35:59;26.00;45.70
62589;DHT22;58504;48.770;9.148;2023-05-14T09:38:30;25.90;46.00
62589;DHT22;58504;48.770;9.148;2023-05-14T09:40:58;25.80;46.00
62589;DHT22;58504;48.770;9.148;2023-05-14T09:43:25;25.80;46.10
62589;DHT22;58504;48.770;9.148;2023-05-14T09:45:52;25.80;46.00
62589;DHT22;58504;48.770;9.148;2023-05-14T09:48:19;25.80;46.00
62589;DHT22;58504;48.770;9.148;2023-05-14T09:50:46;25.80;46.10
62589;DHT22;58504;48.770;9.148;2023-05-14T09:53:13;25.80;46.00
62589;DHT22;58504;48.770;9.148;2023-05-14T09:55:42;25.70;45.70
62589;DHT22;58504;48.770;9.148;2023-05-14T09:58:10;25.60;45.70
62589;DHT22;58504;48.770;9.148;2023-05-14T10:00:38;25.50;45.90
62589;DHT22;58504;48.770;9.148;2023-05-14T10:03:09;25.30;46.20
62589;DHT22;58504;48.770;9.148;2023-05-14T10:05:40;25.20;46.50
62589;DHT22;58504;48.770;9.148;2023-05-14T10:08:13;25.00;46.30
62589;DHT22;58504;48.770;9.148;2023-05-14T10:10:43;24.90;46.50
62589;DHT22;58504;48.770;9.148;2023-05-14T10:13:14;24.70;46.50
62589;DHT22;58504;48.770;9.148;2023-05-14T10:15:48;24.60;46.80
62589;DHT22;58504;48.770;9.148;2023-05-14T10:18:19;24.50;47.20
62589;DHT22;58504;48.770;9.148;2023-05-14T10:20:55;24.50;47.50
62589;DHT22;58504;48.770;9.148;2023-05-14T10:23:25;24.30;47.50
62589;DHT22;58504;48.770;9.148;2023-05-14T10:25:52;24.30;47.70
62589;DHT22;58504;48.770;9.148;2023-05-14T10:28:20;24.20;48.10
62589;DHT22;58504;48.770;9.148;2023-05-14T10:30:48;24.10;48.50
62589;DHT22;58504;48.770;9.148;2023-05-14T10:33:16;24.10;48.90
62589;DHT22;58504;48.770;9.148;2023-05-14T10:36:10;24.00;49.00
62589;DHT22;58504;48.770;9.148;2023-05-14T10:38:37;24.00;49.80
62589;DHT22;58504;48.770;9.148;2023-05-14T10:41:05;24.00;49.30
62589;DHT22;58504;48.770;9.148;2023-05-14T10:43:36;24.00;49.40
62589;DHT22;58504;48.770;9.148;2023-05-14T10:46:04;24.00;49.40
62589;DHT22;58504;48.770;9.148;2023-05-14T10:48:32;24.00;49.40
62589;DHT22;58504;48.770;9.148;2023-05-14T10:51:00;24.00;49.50
62589;DHT22;58504;48.770;9.148;2023-05-14T10:53:34;24.00;49.40
62589;DHT22;58504;48.770;9.148;2023-05-14T10:56:11;24.00;49.50
62589;DHT22;58504;48.770;9.148;2023-05-14T10:58:41;24.00;49.50
62589;DHT22;58504;48.770;9.148;2023-05-14T11:01:10;24.00;49.30
62589;DHT22;58504;48.770;9.148;2023-05-14T11:03:38;24.00;49.30
62589;DHT22;58504;48.770;9.148;2023-05-14T11:06:06;24.00;49.40
62589;DHT22;58504;48.770;9.148;2023-05-14T11:08:33;23.90;49.40
62589;DHT22;58504;48.770;9.148;2023-05-14T11:11:01;23.90;49.50
62589;DHT22;58504;48.770;9.148;2023-05-14T11:13:28;23.80;49.60
62589;DHT22;58504;48.770;9.148;2023-05-14T11:15:57;23.80;50.20
62589;DHT22;58504;48.770;9.148;2023-05-14T11:18:26;23.70;49.60
62589;DHT22;58504;48.770;9.148;2023-05-14T11:20:57;23.70;49.60
62589;DHT22;58504;48.770;9.148;2023-05-14T11:23:24;23.60;49.70
62589;DHT22;58504;48.770;9.148;2023-05-14T11:25:51;23.50;49.70
62589;DHT22;58504;48.770;9.148;2023-05-14T11:28:19;23.40;49.70
62589;DHT22;58504;48.770;9.148;2023-05-14T11:30:47;23.40;50.00
62589;DHT22;58504;48.770;9.148;2023-05-14T11:33:15;23.40;50.20
62589;DHT22;58504;48.770;9.148;2023-05-14T11:35:42;23.30;50.10
62589;DHT22;58504;48.770;9.148;2023-05-14T11:38:13;23.30;50.10
62589;DHT22;58504;48.770;9.148;2023-05-14T11:40:40;23.30;50.20
62589;DHT22;58504;48.770;9.148;2023-05-14T11:43:07;23.30;50.20
62589;DHT22;58504;48.770;9.148;2023-05-14T11:45:34;23.30;50.10
62589;DHT22;58504;48.770;9.148;2023-05-14T11:48:10;23.30;50.10
62589;DHT22;58504;48.770;9.148;2023-05-14T11:50:44;23.30;50.30
62589;DHT22;58504;48.770;9.148;2023-05-14T11:53:10;23.30;50.50
62589;DHT22;58504;48.770;9.148;2023-05-14T11:55:37;23.30;50.70
62589;DHT22;58504;48.770;9.148;2023-05-14T11:58:04;23.20;50.60
62589;DHT22;58504;48.770;9.148;2023-05-14T12:00:30;23.20;50.60
62589;DHT22;58504;48.770;9.148;2023-05-14T12:02:58;23.10;50.50
62589;DHT22;58504;48.770;9.148;2023-05-14T12:05:25;23.10;50.60
62589;DHT22;58504;48.770;9.148;2023-05-14T12:07:53;23.10;50.60
62589;DHT22;58504;48.770;9.148;2023-05-14T12:10:20;23.00;50.60
62589;DHT22;58504;48.770;9.148;2023-05-14T12:12:47;23.00;50.70
62589;DHT22;58504;48.770;9.148;2023-05-14T12:15:15;23.00;50.60
62589;DHT22;58504;48.770;9.148;2023-05-14T12:17:42;23.00;50.70
62589;DHT22;58504;48.770;9.148;2023-05-14T12:20:14;23.00;50.60
62589;DHT22;58504;48.770;9.148;2023-05-14T12:22:41;23.00;50.70
62589;DHT22;58504;48.770;9.148;2023-05-14T12:25:12;23.00;50.70
62589;DHT22;58504;48.770;9.148;2023-05-14T12:27:39;23.00;50.50
62589;DHT22;58504;48.770;9.148;2023-05-14T12:30:06;23.00;50.70
62589;DHT22;58504;48.770;9.148;2023-05-14T12:32:34;23.00;50.70
62589;DHT22;58504;48.770;9.148;2023-05-14T12:35:01;23.00;50.70
62589;DHT22;58504;48.770;9.148;2023-05-14T12:37:28;23.00;50.60
62589;DHT22;58504;48.770;9.148;2023-05-14T12:39:55;23.00;50.60
62589;DHT22;58504;48.770;9.148;2023-05-14T12:42:23;23.00;50.60
62589;DHT22;58504;48.770;9.148;2023-05-14T12:44:49;23.00;50.70
62589;DHT22;58504;48.770;9.148;2023-05-14T12:47:16;23.00;50.70
62589;DHT22;58504;48.770;9.148;2023-05-14T12:49:43;23.00;50.60
62589;DHT22;58504;48.770;9.148;2023-05-14T12:52:10;23.00;50.70
62589;DHT22;58504;48.770;9.148;2023-05-14T12:54:36;23.00;50.80
62589;DHT22;58504;48.770;9.148;2023-05-14T12:57:05;23.00;50.90
62589;DHT22;58504;48.770;9.148;2023-05-14T12:59:33;23.00;50.90
62589;DHT22;58504;48.770;9.148;2023-05-14T13:02:00;23.10;51.00
62589;DHT22;58504;48.770;9.148;2023-05-14T13:04:26;23.10;50.90
62589;DHT22;58504;48.770;9.148;2023-05-14T13:06:53;23.20;50.80
62589;DHT22;58504;48.770;9.148;2023-05-14T13:09:20;23.20;50.70
62589;DHT22;58504;48.770;9.148;2023-05-14T13:11:47;23.30;50.60
62589;DHT22;58504;48.770;9.148;2023-05-14T13:14:14;23.30;50.50
62589;DHT22;58504;48.770;9.148;2023-05-14T13:16:42;23.40;50.40
62589;DHT22;58504;48.770;9.148;2023-05-14T13:19:08;23.50;50.30
62589;DHT22;58504;48.770;9.148;2023-05-14T13:21:35;23.70;50.20
62589;DHT22;58504;48.770;9.148;2023-05-14T13:24:02;23.80;50.00
62589;DHT22;58504;48.770;9.148;2023-05-14T13:26:29;23.90;49.70
62589;DHT22;58504;48.770;9.148;2023-05-14T13:28:55;24.00;49.40
62589;DHT22;58504;48.770;9.148;2023-05-14T13:31:22;24.10;49.20
62589;DHT22;58504;48.770;9.148;2023-05-14T13:33:50;24.20;49.00
62589;DHT22;58504;48.770;9.148;2023-05-14T13:36:17;24.20;48.70
62589;DHT22;58504;48.770;9.148;2023-05-14T13:38:44;24.20;48.60
62589;DHT22;58504;48.770;9.148;2023-05-14T13:41:11;24.20;48.70
62589;DHT22;58504;48.770;9.148;2023-05-14T13:43:38;24.10;48.70
62589;DHT22;58504;48.770;9.148;2023-05-14T13:46:04;24.00;48.80
62589;DHT22;58504;48.770;9.148;2023-05-14T13:48:32;23.90;49.00
62589;DHT22;58504;48.770;9.148;2023-05-14T13:51:01;23.80;49.10
62589;DHT22;58504;48.770;9.148;2023-05-14T13:53:28;23.80;49.30
62589;DHT22;58504;48.770;9.148;2023-05-14T13:55:55;23.70;49.50
62589;DHT22;58504;48.770;9.148;2023-05-14T13:58:23;23.60;49.60
62589;DHT22;58504;48.770;9.148;2023-05-14T14:00:50;23.50;49.70
62589;DHT22;58504;48.770;9.148;2023-05-14T14:03:17;23.50;49.80
62589;DHT22;58504;48.770;9.148;2023-05-14T14:05:44;23.40;50.00
62589;DHT22;58504;48.770;9.148;2023-05-14T14:08:12;23.30;50.00
62589;DHT22;58504;48.770;9.148;2023-05-14T14:10:39;23.30;50.20
62589;DHT22;58504;48.770;9.148;2023-05-14T14:13:07;23.20;50.40
62589;DHT22;58504;48.770;9.148;2023-05-14T14:15:34;23.10;50.50
62589;DHT22;58504;48.770;9.148;2023-05-14T14:18:00;23.10;50.60
62589;DHT22;58504;48.770;9.148;2023-05-14T14:20:27;23.00;50.70
62589;DHT22;58504;48.770;9.148;2023-05-14T14:22:55;23.00;50.90
62589;DHT22;58504;48.770;9.148;2023-05-14T14:25:23;22.90;50.80
62589;DHT22;58504;48.770;9.148;2023-05-14T14:27:50;22.90;50.90
62589;DHT22;58504;48.770;9.148;2023-05-14T14:30:17;22.90;51.10
62589;DHT22;58504;48.770;9.148;2023-05-14T14:32:44;22.80;51.10
62589;DHT22;58504;48.770;9.148;2023-05-14T14:35:11;22.80;51.10
62589;DHT22;58504;48.770;9.148;2023-05-14T14:37:39;22.80;51.10
62589;DHT22;58504;48.770;9.148;2023-05-14T14:40:07;22.80;51.00
62589;DHT22;58504;48.770;9.148;2023-05-14T14:42:36;22.80;51.10
62589;DHT22;58504;48.770;9.148;2023-05-14T14:45:04;22.70;51.80
62589;DHT22;58504;48.770;9.148;2023-05-14T14:47:31;22.70;51.40
62589;DHT22;58504;48.770;9.148;2023-05-14T14:49:58;22.60;51.40
62589;DHT22;58504;48.770;9.148;2023-05-14T14:52:25;22.60;51.50
62589;DHT22;58504;48.770;9.148;2023-05-14T14:54:52;22.60;51.70
62589;DHT22;58504;48.770;9.148;2023-05-14T14:57:19;22.60;51.70
62589;DHT22;58504;48.770;9.148;2023-05-14T14:59:48;22.60;51.80
62589;DHT22;58504;48.770;9.148;2023-05-14T15:02:14;22.50;51.90
62589;DHT22;58504;48.770;9.148;2023-05-14T15:04:41;22.50;51.90
62589;DHT22;58504;48.770;9.148;2023-05-14T15:07:08;22.50;52.00
62589;DHT22;58504;48.770;9.148;2023-05-14T15:09:35;22.50;52.50
62589;DHT22;58504;48.770;9.148;2023-05-14T15:12:02;22.50;52.10
62589;DHT22;58504;48.770;9.148;2023-05-14T15:14:29;22.50;52.10
62589;DHT22;58504;48.770;9.148;2023-05-14T15:16:57;22.40;52.00
62589;DHT22;58504;48.770;9.148;2023-05-14T15:19:24;22.40;52.10
62589;DHT22;58504;48.770;9.148;2023-05-14T15:21:51;22.40;52.10
62589;DHT22;58504;48.770;9.148;2023-05-14T15:24:18;22.40;52.00
62589;DHT22;58504;48.770;9.148;2023-05-14T15:26:45;22.50;52.00
62589;DHT22;58504;48.770;9.148;2023-05-14T15:29:11;22.50;52.10
62589;DHT22;58504;48.770;9.148;2023-05-14T15:31:38;22.40;52.00